Time;durP1;ratioP1;P1;durP2;ratioP2;P2;SDS_P1;SDS_P2;PMS_P1;PMS_P2;Temp;Humidity;BMP_temperature;BMP_pressure;BME280_temperature;BME280_humidity;BME280_pressure;Samples;Min_cycle;Max_cycle;Signal;HPM_P1;HPM_P2
2023/08/27 00:00:27;;;;;;;10.50;5.20;;;;;;;14.81;100.00;100977.88;6095656;19;20019;-70
2023/08/27 00:02:35;;;;;;;8.30;4.43;;;;;;;14.88;100.00;100977.44;6093698;19;20019;-70
2023/08/27 00:04:42;;;;;;;8.95;4.03;;;;;;;14.88;100.00;100980.09;6090948;19;20492;-70
2023/08/27 00:06:47;;;;;;;8.50;4.50;;;;;;;14.83;100.00;100979.50;6095331;19;20094;-69
2023/08/27 00:08:53;;;;;;;9.27;3.88;;;;;;;14.84;100.00;100985.63;6088313;19;20082;-71
2023/08/27 00:11:00;;;;;;;9.60;3.60;;;;;;;14.82;100.00;100983.06;6082652;19;20013;-70
2023/08/27 00:13:06;;;;;;;8.73;4.30;;;;;;;14.83;100.00;100979.50;6096250;19;20027;-70
2023/08/27 00:15:12;;;;;;;9.02;3.88;;;;;;;14.85;100.00;100980.25;6088112;19;20006;-70
2023/08/27 00:17:19;;;;;;;8.02;4.03;;;;;;;14.88;100.00;100979.25;6092022;19;20009;-71
2023/08/27 00:19:24;;;;;;;7.88;3.97;;;;;;;14.88;100.00;100979.25;6095893;19;20069;-71
2023/08/27 00:21:29;;;;;;;9.70;3.85;;;;;;;14.90;100.00;100977.34;6089256;19;20051;-72
2023/08/27 00:23:34;;;;;;;9.05;4.03;;;;;;;14.90;100.00;100972.03;6095889;19;20051;-69
2023/08/27 00:25:39;;;;;;;7.45;3.75;;;;;;;14.91;100.00;100963.19;6090934;19;20086;-70
2023/08/27 00:27:45;;;;;;;8.85;4.05;;;;;;;14.88;100.00;100964.22;6092091;19;20010;-70
2023/08/27 00:29:50;;;;;;;11.05;4.00;;;;;;;14.86;100.00;100966.09;6083883;19;20011;-70
2023/08/27 00:31:55;;;;;;;8.57;3.63;;;;;;;14.85;100.00;100958.22;6088123;19;20714;-70
2023/08/27 00:34:02;;;;;;;8.63;4.13;;;;;;;14.90;100.00;100950.88;6097580;19;20503;-70
2023/08/27 00:36:07;;;;;;;9.23;4.50;;;;;;;14.89;100.00;100955.31;6093666;19;20031;-70
2023/08/27 00:38:12;;;;;;;8.75;4.05;;;;;;;14.91;100.00;100956.09;6093831;19;20021;-70
2023/08/27 00:40:17;;;;;;;13.90;4.45;;;;;;;14.90;100.00;100949.09;6093738;19;20074;-70
2023/08/27 00:42:22;;;;;;;11.55;3.70;;;;;;;14.94;100.00;100952.41;6098345;19;20006;-71
2023/08/27 00:44:30;;;;;;;9.18;3.70;;;;;;;14.94;100.00;100947.13;6088820;19;20006;-71
2023/08/27 00:46:35;;;;;;;8.32;3.92;;;;;;;14.91;100.00;100952.59;6090142;19;20070;-72
2023/08/27 00:48:40;;;;;;;8.55;4.00;;;;;;;14.90;100.00;100948.22;6088722;19;20090;-70
2023/08/27 00:50:48;;;;;;;6.45;3.38;;;;;;;14.94;100.00;100944.47;6090401;19;20492;-70
2023/08/27 00:52:51;;;;;;;8.70;3.80;;;;;;;14.92;100.00;100938.41;6084239;19;20018;-70
2023/08/27 00:55:03;;;;;;;7.38;3.72;;;;;;;14.90;100.00;100935.00;6089352;19;20489;-70
2023/08/27 00:57:12;;;;;;;6.45;3.40;;;;;;;14.87;100.00;100930.75;6084546;19;20003;-70
2023/08/27 00:59:18;;;;;;;7.93;3.67;;;;;;;14.82;100.00;100924.00;6093027;19;20014;-70
2023/08/27 01:01:25;;;;;;;8.48;3.42;;;;;;;14.85;100.00;100926.47;6090087;19;20023;-70
2023/08/27 01:03:31;;;;;;;8.10;3.78;;;;;;;14.89;100.00;100925.38;6088500;19;20006;-70
2023/08/27 01:05:37;;;;;;;9.52;3.50;;;;;;;14.90;100.00;100922.66;6081935;19;20027;-70
2023/08/27 01:07:53;;;;;;;6.53;3.45;;;;;;;14.87;100.00;100922.78;6082302;19;20701;-70
2023/08/27 01:15:36;;;;;;;7.60;3.50;;;;;;;14.87;100.00;100917.50;6063323;19;20930;-70
2023/08/27 01:17:39;;;;;;;6.50;3.25;;;;;;;14.91;100.00;100913.75;6079875;19;20006;-70
2023/08/27 01:19:49;;;;;;;6.45;3.28;;;;;;;14.89;100.00;100907.69;6087697;19;20366;-73
2023/08/27 01:21:56;;;;;;;10.27;4.40;;;;;;;14.93;100.00;100908.41;6095057;19;20018;-74
2023/08/27 01:24:01;;;;;;;8.38;3.95;;;;;;;14.90;100.00;100906.78;6085411;19;20002;-75
2023/08/27 01:26:06;;;;;;;12.40;3.83;;;;;;;14.87;100.00;100914.84;6086590;19;20007;-74
2023/08/27 01:28:17;;;;;;;7.40;3.55;;;;;;;14.88;100.00;100906.00;6091290;19;20010;-74
2023/08/27 01:30:29;;;;;;;7.50;3.55;;;;;;;14.87;100.00;100898.97;6077493;19;20006;-74
2023/08/27 01:32:40;;;;;;;7.88;3.88;;;;;;;14.88;100.00;100900.72;6094163;19;20043;-74
2023/08/27 01:34:47;;;;;;;9.85;4.03;;;;;;;14.85;100.00;100892.94;6079818;19;20070;-72
2023/08/27 01:36:50;;;;;;;10.25;4.43;;;;;;;14.85;100.00;100898.25;6082988;19;20013;-73
2023/08/27 01:38:59;;;;;;;10.85;4.57;;;;;;;14.85;100.00;100894.72;6079474;19;19999;-74
2023/08/27 01:41:04;;;;;;;9.77;4.32;;;;;;;14.92;100.00;100906.66;6088701;19;20085;-73
2023/08/27 01:43:09;;;;;;;11.00;4.63;;;;;;;14.92;100.00;100899.56;6084881;19;20446;-73
2023/08/27 01:45:15;;;;;;;9.80;3.90;;;;;;;14.89;100.00;100902.41;6083357;19;20022;-74
2023/08/27 01:47:17;;;;;;;9.60;4.35;;;;;;;14.92;100.00;100904.88;6081652;19;20043;-74
2023/08/27 01:49:22;;;;;;;11.18;5.03;;;;;;;14.93;100.00;100905.75;6096688;19;20492;-75
2023/08/27 01:51:29;;;;;;;9.75;4.75;;;;;;;14.93;100.00;100903.94;6079765;19;20018;-76
2023/08/27 01:53:34;;;;;;;11.23;4.90;;;;;;;14.96;100.00;100899.41;6086731;19;20728;-73
2023/08/27 01:55:43;;;;;;;10.23;4.82;;;;;;;14.95;100.00;100903.00;6084604;19;20027;-73
2023/08/27 01:57:48;;;;;;;10.77;4.32;;;;;;;14.91;100.00;100904.97;6089756;19;20085;-73
2023/08/27 01:59:51;;;;;;;10.15;4.68;;;;;;;14.95;100.00;100905.63;6085463;19;20029;-73
2023/08/27 02:01:56;;;;;;;9.95;4.72;;;;;;;14.96;100.00;100908.22;6096447;19;20113;-74
2023/08/27 02:04:00;;;;;;;10.80;4.60;;;;;;;14.97;100.00;100911.69;6092047;19;20401;-75
2023/08/27 02:06:03;;;;;;;12.93;4.75;;;;;;;14.95;100.00;100900.34;6077100;19;20014;-75
2023/08/27 02:08:08;;;;;;;10.43;4.68;;;;;;;14.96;100.00;100902.91;6084863;19;20438;-75
2023/08/27 02:10:13;;;;;;;10.02;4.82;;;;;;;14.97;100.00;100903.75;6097686;19;20011;-74
2023/08/27 02:12:23;;;;;;;10.60;5.00;;;;;;;15.02;100.00;100907.84;6094990;19;20098;-74
2023/08/27 02:14:26;;;;;;;7.78;4.00;;;;;;;15.02;100.00;100901.72;6085294;19;20686;-73
2023/08/27 02:16:31;;;;;;;8.90;4.28;;;;;;;15.00;100.00;100900.94;6070885;19;20027;-74
2023/08/27 02:18:36;;;;;;;8.75;4.68;;;;;;;15.03;100.00;100903.41;6083597;19;20023;-73
2023/08/27 02:20:38;;;;;;;10.55;5.03;;;;;;;14.97;100.00;100896.66;6089472;19;20002;-73
2023/08/27 02:22:43;;;;;;;11.18;4.78;;;;;;;14.98;100.00;100895.75;6073843;19;20007;-74
2023/08/27 02:24:46;;;;;;;9.57;4.60;;;;;;;15.01;100.00;100886.75;6094670;19;20010;-76
2023/08/27 02:26:50;;;;;;;9.55;4.72;;;;;;;14.99;100.00;100878.06;6076410;19;20003;-75
2023/08/27 02:28:58;;;;;;;11.48;4.88;;;;;;;14.96;100.00;100888.84;6085052;19;20135;-73
2023/08/27 02:31:03;;;;;;;11.40;4.55;;;;;;;14.97;100.00;100883.44;6089311;19;20009;-74
2023/08/27 02:33:08;;;;;;;10.68;4.65;;;;;;;14.98;100.00;100886.94;6089534;19;20007;-73
2023/08/27 02:35:14;;;;;;;10.65;4.95;;;;;;;14.94;100.00;100894.22;6081904;19;20028;-73
2023/08/27 02:37:18;;;;;;;13.38;4.93;;;;;;;14.91;100.00;100892.59;6069238;19;20024;-73
2023/08/27 02:39:23;;;;;;;9.45;4.45;;;;;;;14.97;100.00;100896.66;6081432;19;20088;-73
2023/08/27 02:41:31;;;;;;;9.73;4.15;;;;;;;14.95;100.00;100895.91;6088875;19;20102;-73
2023/08/27 02:43:36;;;;;;;11.13;4.90;;;;;;;14.93;100.00;100892.50;6069431;19;20010;-74
2023/08/27 02:45:45;;;;;;;12.20;4.68;;;;;;;14.93;100.00;100905.75;6069784;19;20139;-73
2023/08/27 02:47:50;;;;;;;11.13;4.78;;;;;;;14.92;100.00;100894.28;6076315;19;20007;-74
2023/08/27 02:49:55;;;;;;;13.75;5.45;;;;;;;14.92;100.00;100899.56;6083618;19;20904;-75
2023/08/27 02:52:00;;;;;;;13.45;5.15;;;;;;;14.93;100.00;100893.34;6088838;19;20006;-75
2023/08/27 02:54:05;;;;;;;13.00;4.97;;;;;;;15.00;100.00;100899.13;6077431;19;20098;-73
2023/08/27 02:56:10;;;;;;;9.95;4.97;;;;;;;14.97;100.00;100896.66;6073810;19;20003;-73
2023/08/27 02:58:15;;;;;;;13.60;4.88;;;;;;;15.00;100.00;100899.13;6080960;19;20016;-73
2023/08/27 03:00:20;;;;;;;9.93;4.50;;;;;;;14.97;100.00;100890.53;6078391;19;20007;-72
2023/08/27 03:02:30;;;;;;;10.68;4.07;;;;;;;14.95;100.00;100890.59;6075313;19;20014;-75
2023/08/27 03:04:33;;;;;;;10.73;4.68;;;;;;;14.95;100.00;100892.41;6079998;19;20015;-75
2023/08/27 03:06:39;;;;;;;9.38;4.60;;;;;;;14.91;100.00;100899.69;6080353;19;20006;-74
2023/08/27 03:08:46;;;;;;;9.20;4.60;;;;;;;14.95;100.00;100905.63;6077450;19;20115;-73
2023/08/27 03:10:51;;;;;;;14.90;5.43;;;;;;;14.98;100.00;100923.97;6076669;19;20673;-74
2023/08/27 03:12:56;;;;;;;10.55;4.32;;;;;;;15.00;100.00;100930.03;6082710;19;20006;-74
2023/08/27 03:15:02;;;;;;;6.65;2.65;;;;;;;14.89;100.00;100934.16;6072763;19;20007;-75
2023/08/27 03:17:07;;;;;;;4.93;2.30;;;;;;;14.77;100.00;100937.50;6073079;19;20011;-71
2023/08/27 03:19:14;;;;;;;6.20;1.70;;;;;;;14.17;100.00;100934.66;6076218;19;20114;-71
2023/08/27 03:21:21;;;;;;;3.47;1.58;;;;;;;13.73;100.00;100937.84;6075597;19;20412;-71
2023/08/27 03:23:26;;;;;;;4.85;1.60;;;;;;;13.51;100.00;100936.31;6087788;19;20022;-71
2023/08/27 03:25:31;;;;;;;5.07;1.60;;;;;;;13.47;100.00;100931.25;6084011;19;20114;-71
2023/08/27 03:27:34;;;;;;;3.90;1.42;;;;;;;13.41;100.00;100935.06;6082909;19;20081;-73
2023/08/27 03:29:39;;;;;;;3.75;1.83;;;;;;;13.38;100.00;100936.09;6087844;19;20036;-71
2023/08/27 03:31:45;;;;;;;2.95;1.27;;;;;;;13.31;100.00;100932.03;6083741;19;20453;-71
2023/08/27 03:33:47;;;;;;;4.25;1.80;;;;;;;13.42;100.00;100926.22;6091548;19;20003;-72
2023/08/27 03:35:58;;;;;;;1.10;1.10;;;;;;;13.34;100.00;100925.75;6088518;19;20006;-72
2023/08/27 03:38:03;;;;;;;1.67;1.35;;;;;;;13.34;100.00;100925.75;6092308;19;20024;-72
2023/08/27 03:40:09;;;;;;;1.85;1.38;;;;;;;13.33;100.00;100918.78;6089549;19;20010;-72
2023/08/27 03:42:14;;;;;;;3.30;1.40;;;;;;;13.36;100.00;100911.53;6095421;19;20006;-71
2023/08/27 03:44:19;;;;;;;1.73;1.30;;;;;;;13.44;100.00;100900.59;6091386;19;20011;-71
2023/08/27 03:46:26;;;;;;;1.60;1.48;;;;;;;13.50;100.00;100895.00;6081948;19;20010;-71
2023/08/27 03:48:31;;;;;;;1.50;1.40;;;;;;;13.54;100.00;100898.34;6091253;19;20068;-71
2023/08/27 03:50:34;;;;;;;3.70;1.35;;;;;;;13.55;100.00;100892.13;6083434;19;20006;-72
2023/08/27 03:52:42;;;;;;;3.72;1.40;;;;;;;13.60;100.00;100888.28;6088304;19;20002;-72
2023/08/27 03:54:44;;;;;;;4.78;1.60;;;;;;;13.59;100.00;100891.03;6094579;19;20010;-73
2023/08/27 03:56:49;;;;;;;3.42;1.73;;;;;;;13.60;100.00;100888.28;6095514;19;20417;-72
2023/08/27 03:58:56;;;;;;;2.67;1.42;;;;;;;13.59;100.00;100885.75;6095131;19;20074;-71
2023/08/27 04:01:01;;;;;;;2.15;1.70;;;;;;;13.53;100.00;100886.94;6092842;19;20109;-70
2023/08/27 04:03:08;;;;;;;2.25;1.45;;;;;;;13.32;100.00;100886.25;6100410;19;20019;-72
2023/08/27 04:05:13;;;;;;;1.63;1.40;;;;;;;13.41;100.00;100882.28;6097792;19;20007;-71
2023/08/27 04:07:19;;;;;;;2.55;1.48;;;;;;;13.34;100.00;100891.44;6091342;19;20135;-73
2023/08/27 04:09:33;;;;;;;2.30;1.27;;;;;;;13.38;100.00;100893.00;6089303;19;20034;-72
2023/08/27 04:11:38;;;;;;;3.40;1.77;;;;;;;13.36;100.00;100900.13;6092415;19;20010;-72
2023/08/27 04:13:43;;;;;;;3.25;1.50;;;;;;;13.31;100.00;100896.88;6097289;19;20388;-71
2023/08/27 04:15:49;;;;;;;2.13;1.63;;;;;;;13.32;100.00;100901.22;6091796;19;20010;-71
2023/08/27 04:17:55;;;;;;;4.22;1.70;;;;;;;13.35;100.00;100887.88;6090725;19;20044;-71
2023/08/27 04:20:00;;;;;;;2.97;1.50;;;;;;;13.40;100.00;100896.38;6093014;19;20031;-71
2023/08/27 04:22:06;;;;;;;1.77;1.45;;;;;;;13.40;100.00;100896.38;6092050;19;20027;-73
2023/08/27 04:24:11;;;;;;;1.75;1.52;;;;;;;13.36;100.00;100900.97;6088908;19;20014;-71
2023/08/27 04:26:21;;;;;;;2.78;1.50;;;;;;;13.38;100.00;100899.13;6095098;19;20007;-72
2023/08/27 04:28:31;;;;;;;3.90;1.70;;;;;;;13.39;100.00;100894.69;6096360;19;20010;-72
2023/08/27 04:30:36;;;;;;;3.22;1.67;;;;;;;13.42;100.00;100902.44;6088321;19;20618;-72
2023/08/27 04:32:41;;;;;;;1.88;1.67;;;;;;;13.47;100.00;100887.22;6093108;19;20882;-72
2023/08/27 04:34:46;;;;;;;2.55;1.63;;;;;;;13.43;100.00;100890.97;6092608;19;20023;-72
2023/08/27 04:36:51;;;;;;;2.28;1.33;;;;;;;13.47;100.00;100889.88;6101692;19;20492;-73
2023/08/27 04:38:56;;;;;;;3.10;1.45;;;;;;;13.48;100.00;100888.97;6098840;19;20533;-72
2023/08/27 04:41:01;;;;;;;1.55;1.45;;;;;;;13.46;100.00;100882.91;6086851;19;20112;-69
2023/08/27 04:43:08;;;;;;;5.20;1.90;;;;;;;13.47;100.00;100887.22;6087087;19;20002;-69
2023/08/27 04:45:16;;;;;;;2.35;1.70;;;;;;;13.46;100.00;100889.97;6091303;19;20167;-69
2023/08/27 04:47:21;;;;;;;4.47;1.73;;;;;;;13.45;100.00;100886.44;6089807;19;20052;-69
2023/08/27 04:49:26;;;;;;;3.50;1.63;;;;;;;13.47;100.00;100887.22;6090864;19;20007;-71
2023/08/27 04:51:28;;;;;;;3.88;2.15;;;;;;;13.48;100.00;100898.63;6088119;19;20130;-71
2023/08/27 04:53:33;;;;;;;2.95;1.80;;;;;;;13.47;100.00;100884.59;6082806;19;20021;-73
2023/08/27 04:55:39;;;;;;;2.45;1.63;;;;;;;13.45;100.00;100885.59;6085075;19;20471;-73
2023/08/27 04:57:44;;;;;;;4.38;1.95;;;;;;;13.45;100.00;100891.72;6083418;19;21241;-71
2023/08/27 04:59:52;;;;;;;5.07;1.52;;;;;;;13.39;100.00;100889.41;6098424;19;20027;-72
2023/08/27 05:02:00;;;;;;;4.10;1.67;;;;;;;13.40;100.00;100896.38;6091275;19;20082;-73
2023/08/27 05:04:05;;;;;;;5.53;1.88;;;;;;;13.42;100.00;100899.81;6094062;19;19999;-71
2023/08/27 05:06:10;;;;;;;5.68;2.50;;;;;;;13.50;100.00;100902.91;6095185;19;20005;-72
2023/08/27 05:08:14;;;;;;;3.67;2.13;;;;;;;13.47;100.00;100902.22;6083170;19;20042;-71
2023/08/27 05:10:20;;;;;;;2.35;1.70;;;;;;;13.43;100.00;100906.81;6085830;19;20014;-71
2023/08/27 05:12:25;;;;;;;2.92;2.00;;;;;;;13.42;100.00;100904.25;6084478;19;20002;-72
2023/08/27 05:14:30;;;;;;;2.50;1.70;;;;;;;13.45;100.00;100907.56;6090471;19;20039;-72
2023/08/27 05:16:38;;;;;;;2.53;1.73;;;;;;;13.44;100.00;100903.22;6095757;19;20459;-72
2023/08/27 05:18:42;;;;;;;2.20;1.60;;;;;;;13.46;100.00;100909.28;6091480;19;20023;-72
2023/08/27 05:20:45;;;;;;;5.03;2.20;;;;;;;13.51;100.00;100909.06;6090884;19;20033;-72
2023/08/27 05:22:50;;;;;;;;;;;;;;;13.51;100.00;100911.72;6076838;19;20006;-72
2023/08/27 05:24:55;;;;;;;4.97;2.33;;;;;;;13.47;100.00;100910.16;6085937;19;20325;-73
2023/08/27 05:27:02;;;;;;;4.50;2.05;;;;;;;13.52;100.00;100910.75;6085723;19;20023;-70
2023/08/27 05:29:17;;;;;;;3.67;1.90;;;;;;;13.56;100.00;100902.63;6089867;19;20011;-72
2023/08/27 05:31:26;;;;;;;6.15;2.10;;;;;;;13.64;100.00;100890.78;6094734;19;20386;-72
2023/08/27 05:33:36;;;;;;;4.35;1.80;;;;;;;13.70;100.00;100893.13;6094733;19;20021;-73
2023/08/27 05:35:42;;;;;;;3.08;1.65;;;;;;;13.67;100.00;100888.84;6086078;19;20011;-71
2023/08/27 05:37:49;;;;;;;2.35;1.70;;;;;;;13.58;100.00;100879.59;6092602;19;20482;-72
2023/08/27 05:39:54;;;;;;;4.00;1.65;;;;;;;13.66;100.00;100881.84;6086121;19;20473;-72
2023/08/27 05:41:59;;;;;;;3.92;2.00;;;;;;;13.73;100.00;100885.03;6090359;19;20493;-73
2023/08/27 05:44:07;;;;;;;3.67;1.83;;;;;;;13.78;100.00;100875.91;6096860;19;20322;-70
2023/08/27 05:46:12;;;;;;;4.75;2.05;;;;;;;13.81;100.00;100869.63;6093791;19;20007;-71
2023/08/27 05:48:17;;;;;;;2.70;1.38;;;;;;;13.98;100.00;100869.56;6088373;19;20012;-70
2023/08/27 05:50:24;;;;;;;3.05;1.70;;;;;;;14.09;100.00;100861.06;6092423;19;20002;-70
2023/08/27 05:52:39;;;;;;;4.35;2.10;;;;;;;14.09;100.00;100863.69;6091129;19;20010;-70
2023/08/27 05:54:45;;;;;;;6.68;2.60;;;;;;;14.09;100.00;100847.00;6089851;19;20943;-71
2023/08/27 05:56:54;;;;;;;10.32;2.50;;;;;;;14.11;100.00;100847.75;6093009;19;20451;-68
2023/08/27 05:59:04;;;;;;;5.97;3.00;;;;;;;14.14;100.00;100858.13;6074760;19;20018;-68
2023/08/27 06:01:09;;;;;;;7.53;3.20;;;;;;;14.19;100.00;100864.91;6089642;19;20024;-71
2023/08/27 06:03:19;;;;;;;7.22;3.80;;;;;;;14.41;100.00;100855.78;6070834;19;19998;-70
2023/08/27 06:05:32;;;;;;;10.68;4.43;;;;;;;14.79;100.00;100856.25;6088749;19;20002;-70
2023/08/27 06:07:39;;;;;;;;;;;;;;;14.85;100.00;100863.84;6076929;19;20018;-69
2023/08/27 06:09:47;;;;;;;11.73;5.28;;;;;;;15.01;100.00;100862.94;6086645;19;19911;-70
2023/08/27 06:11:50;;;;;;;18.58;6.38;;;;;;;15.11;100.00;100856.16;6079238;19;20368;-72
2023/08/27 06:14:07;;;;;;;16.08;6.95;;;;;;;15.47;100.00;100861.06;6087817;19;20006;-73
2023/08/27 06:16:18;;;;;;;13.70;6.57;;;;;;;15.72;100.00;100870.19;6086486;19;20014;-70
2023/08/27 06:18:26;;;;;;;12.82;7.55;;;;;;;15.85;100.00;100880.88;6065953;19;20012;-71
2023/08/27 06:20:36;;;;;;;15.40;8.15;;;;;;;15.79;100.00;100875.00;6040524;19;20014;-70
2023/08/27 06:22:44;;;;;;;16.55;7.57;;;;;;;15.97;100.00;100880.13;6097626;19;20516;-70
2023/08/27 06:24:51;;;;;;;16.10;7.25;;;;;;;16.26;100.00;100878.28;6075984;19;20267;-69
2023/08/27 06:26:56;;;;;;;15.52;7.53;;;;;;;16.09;100.00;100879.34;6094342;19;20014;-70
2023/08/27 06:29:05;;;;;;;12.82;7.30;;;;;;;15.92;100.00;100877.75;6087790;19;20032;-70
2023/08/27 06:31:18;;;;;;;16.30;7.78;;;;;;;15.81;100.00;100880.22;6084654;19;20007;-70
2023/08/27 06:33:25;;;;;;;14.00;7.78;;;;;;;15.75;100.00;100886.75;6086444;19;20035;-69
2023/08/27 06:35:50;;;;;;;17.02;7.95;;;;;;;15.88;100.00;100886.00;6088004;19;20035;-70
2023/08/27 06:37:55;;;;;;;18.23;8.13;;;;;;;15.91;100.00;100881.34;6088308;19;20017;-70
2023/08/27 06:40:00;;;;;;;17.90;8.48;;;;;;;16.18;100.00;100889.38;6095692;19;20516;-71
2023/08/27 06:42:09;;;;;;;15.30;8.15;;;;;;;16.23;100.00;100881.97;6097683;19;20010;-69
2023/08/27 06:44:14;;;;;;;15.30;7.90;;;;;;;16.07;100.00;100883.91;6090264;19;20035;-70
2023/08/27 06:46:34;;;;;;;17.02;8.50;;;;;;;16.11;100.00;100901.28;6098356;19;20565;-70
2023/08/27 06:48:40;;;;;;;14.77;8.05;;;;;;;16.05;100.00;100888.44;6085210;19;20446;-70
2023/08/27 06:50:49;;;;;;;15.05;7.50;;;;;;;16.34;100.00;100894.56;6093622;19;20085;-69
2023/08/27 06:52:58;;;;;;;15.07;8.40;;;;;;;16.38;100.00;100895.22;6093967;19;20365;-70
2023/08/27 06:55:03;;;;;;;18.55;8.63;;;;;;;16.95;100.00;100894.19;6089918;19;20015;-69
2023/08/27 06:57:09;;;;;;;15.88;8.40;;;;;;;16.81;100.00;100897.78;6084900;19;20015;-70
2023/08/27 06:59:14;;;;;;;16.55;7.93;;;;;;;16.61;100.00;100891.06;6089803;19;20014;-71
2023/08/27 07:01:19;;;;;;;16.35;7.32;;;;;;;16.51;100.00;100896.13;6090344;19;20034;-70
2023/08/27 07:03:42;;;;;;;13.23;5.97;;;;;;;16.53;100.00;100890.72;6095182;19;20015;-70
2023/08/27 07:05:50;;;;;;;9.38;5.40;;;;;;;16.51;100.00;100887.31;6085307;19;20516;-71
2023/08/27 07:07:55;;;;;;;9.55;4.13;;;;;;;16.47;100.00;100894.63;6079781;19;20011;-70
2023/08/27 07:10:04;;;;;;;6.28;3.40;;;;;;;16.29;100.00;100887.84;6096650;19;20002;-69
2023/08/27 07:12:09;;;;;;;5.40;3.13;;;;;;;16.27;100.00;100879.13;6100832;19;20035;-70
2023/08/27 07:14:14;;;;;;;5.75;2.75;;;;;;;15.90;100.00;100889.38;6101563;19;20003;-70
2023/08/27 07:16:22;;;;;;;6.57;3.22;;;;;;;16.09;100.00;100886.44;6096237;19;20006;-70
2023/08/27 07:18:28;;;;;;;4.95;2.92;;;;;;;16.54;100.00;100887.13;6100355;19;20011;-71
2023/08/27 07:20:42;;;;;;;6.07;2.60;;;;;;;16.81;96.47;100876.53;6102474;19;20051;-71
2023/08/27 07:22:52;;;;;;;6.28;2.20;;;;;;;17.05;94.58;100869.59;6089460;19;20021;-69
2023/08/27 07:25:09;;;;;;;4.53;2.20;;;;;;;17.31;94.38;100864.31;6087816;19;20090;-69
2023/08/27 07:27:13;;;;;;;6.75;2.42;;;;;;;17.54;92.55;100850.31;6091695;19;20786;-71
2023/08/27 07:29:18;;;;;;;3.88;2.05;;;;;;;17.86;93.53;100849.88;6096776;19;20040;-70
2023/08/27 07:31:21;;;;;;;5.72;2.45;;;;;;;18.15;91.70;100844.28;6078175;19;20019;-69
2023/08/27 07:33:29;;;;;;;5.20;2.03;;;;;;;18.11;89.24;100843.66;6091599;19;20021;-69
2023/08/27 07:35:37;;;;;;;4.20;1.90;;;;;;;18.49;88.56;100836.50;6093686;19;20072;-70
2023/08/27 07:37:49;;;;;;;2.78;1.52;;;;;;;18.04;86.89;100837.09;6096075;19;20003;-70
2023/08/27 07:39:58;;;;;;;1.95;1.50;;;;;;;17.88;89.09;100836.50;6093581;19;20475;-69
2023/08/27 07:42:00;;;;;;;2.38;1.50;;;;;;;17.33;87.21;100835.84;6092304;19;20040;-72
2023/08/27 07:44:09;;;;;;;4.32;1.70;;;;;;;17.18;87.97;100835.09;6083220;19;20028;-69
2023/08/27 07:46:14;;;;;;;2.90;1.60;;;;;;;17.71;86.97;100840.28;6096034;19;20010;-69
2023/08/27 07:48:19;;;;;;;2.53;1.60;;;;;;;18.24;87.34;100842.78;6078634;19;20010;-69
2023/08/27 07:50:24;;;;;;;4.20;1.58;;;;;;;18.01;82.33;100836.44;6094302;19;20874;-71
2023/08/27 07:52:29;;;;;;;2.17;1.58;;;;;;;17.52;85.63;100830.97;6089834;19;20382;-69
2023/08/27 07:54:37;;;;;;;2.60;1.58;;;;;;;17.15;83.41;100847.75;6094138;19;20107;-71
2023/08/27 07:56:45;;;;;;;3.15;1.60;;;;;;;16.93;85.57;100848.31;6076857;19;20003;-70
2023/08/27 07:58:50;;;;;;;3.80;1.95;;;;;;;16.76;89.52;100855.56;6085506;19;20020;-69
2023/08/27 08:01:02;;;;;;;3.78;1.60;;;;;;;16.75;89.34;100855.69;6074350;19;20380;-70
2023/08/27 08:03:07;;;;;;;2.80;1.63;;;;;;;16.73;90.57;100858.44;6092222;19;20028;-69
2023/08/27 08:05:14;;;;;;;3.92;1.88;;;;;;;16.73;90.89;100863.75;6084516;19;20385;-70
2023/08/27 08:07:19;;;;;;;3.35;1.60;;;;;;;16.74;89.78;100859.28;6091939;19;20092;-70
2023/08/27 08:09:25;;;;;;;2.67;1.67;;;;;;;16.56;87.47;100858.69;6092500;19;20338;-70
2023/08/27 08:11:35;;;;;;;2.28;1.67;;;;;;;16.75;89.14;100858.34;6087457;19;20528;-70
2023/08/27 08:13:40;;;;;;;3.05;1.65;;;;;;;16.21;86.46;100869.75;6082575;19;20031;-71
2023/08/27 08:15:45;;;;;;;3.97;1.50;;;;;;;15.97;89.07;100865.06;6085419;19;20014;-70
2023/08/27 08:17:50;;;;;;;1.85;1.73;;;;;;;15.90;89.53;100863.72;6088886;19;20003;-69
2023/08/27 08:19:55;;;;;;;2.22;1.40;;;;;;;15.78;88.84;100861.88;6087625;19;20431;-69
2023/08/27 08:22:00;;;;;;;3.90;1.80;;;;;;;15.77;88.66;100863.66;6094226;19;20033;-69
2023/08/27 08:24:05;;;;;;;4.28;1.58;;;;;;;15.61;87.78;100860.19;6092289;19;20028;-70
2023/08/27 08:26:11;;;;;;;1.45;1.23;;;;;;;15.62;89.04;100858.44;6089358;19;20020;-69
2023/08/27 08:28:19;;;;;;;2.50;1.52;;;;;;;15.62;88.09;100863.72;6083558;19;20023;-69
2023/08/27 08:30:26;;;;;;;2.30;1.40;;;;;;;15.81;87.44;100866.97;6091747;19;20816;-69
2023/08/27 08:32:31;;;;;;;2.33;1.30;;;;;;;15.63;90.26;100868.06;6093614;19;20015;-69
2023/08/27 08:34:36;;;;;;;2.53;1.30;;;;;;;15.59;89.48;100870.91;6093296;19;20036;-69
2023/08/27 08:36:41;;;;;;;1.67;1.23;;;;;;;15.67;91.40;100877.53;6094193;19;20081;-70
2023/08/27 08:38:47;;;;;;;1.95;1.23;;;;;;;15.87;90.71;100876.34;6090811;19;20017;-70
2023/08/27 08:41:02;;;;;;;1.48;1.33;;;;;;;16.10;87.35;100867.78;6091366;19;20046;-70
2023/08/27 08:43:09;;;;;;;3.95;1.50;;;;;;;16.70;84.88;100865.75;6088777;19;20006;-69
2023/08/27 08:45:24;;;;;;;3.80;1.38;;;;;;;17.58;85.84;100868.69;6089829;19;20027;-68
2023/08/27 08:47:31;;;;;;;2.70;1.48;;;;;;;17.33;80.97;100873.88;6090056;19;20574;-72
2023/08/27 08:49:38;;;;;;;2.88;1.45;;;;;;;17.90;82.41;100877.09;6082003;19;20471;-68
2023/08/27 08:51:44;;;;;;;1.73;1.50;;;;;;;17.67;82.84;100868.06;6092603;19;20485;-68
2023/08/27 08:53:50;;;;;;;1.55;1.27;;;;;;;17.35;82.73;100865.78;6089805;19;20002;-68
2023/08/27 08:56:01;;;;;;;1.20;1.10;;;;;;;17.20;81.43;100874.84;6081303;19;20614;-68
2023/08/27 08:58:11;;;;;;;2.20;1.40;;;;;;;16.99;80.83;100875.31;6090920;19;20440;-69
2023/08/27 09:00:19;;;;;;;1.63;1.20;;;;;;;16.93;81.60;100881.03;6090531;19;20021;-68
2023/08/27 09:02:22;;;;;;;2.03;1.27;;;;;;;16.67;82.21;100875.63;6090504;19;20475;-67
2023/08/27 09:04:31;;;;;;;1.23;1.13;;;;;;;16.77;82.75;100877.66;6091693;19;20365;-68
2023/08/27 09:06:40;;;;;;;2.03;1.35;;;;;;;16.48;83.47;100875.09;6084606;19;20177;-70
2023/08/27 09:08:46;;;;;;;3.25;1.50;;;;;;;16.47;84.38;100878.69;6085389;19;20006;-68
2023/08/27 09:10:53;;;;;;;1.23;1.10;;;;;;;16.34;81.81;100867.19;6088849;19;20011;-68
2023/08/27 09:13:01;;;;;;;2.65;1.40;;;;;;;16.33;83.84;100876.09;6082318;19;20596;-69
2023/08/27 09:15:10;;;;;;;2.40;1.70;;;;;;;16.20;83.64;100871.56;6089118;19;20167;-69
2023/08/27 09:17:19;;;;;;;4.40;1.92;;;;;;;16.29;83.82;100863.97;6088867;19;20084;-69
2023/08/27 09:19:25;;;;;;;3.22;1.65;;;;;;;16.36;84.19;100868.78;6092927;19;20558;-68
2023/08/27 09:21:30;;;;;;;2.63;1.60;;;;;;;16.15;84.29;100881.63;6085842;19;20018;-68
2023/08/27 09:23:37;;;;;;;3.35;1.83;;;;;;;15.93;84.13;100866.22;6092540;19;20303;-68
2023/08/27 09:25:44;;;;;;;2.30;1.33;;;;;;;15.82;86.30;100862.50;6087941;19;20006;-69
2023/08/27 09:27:49;;;;;;;3.33;1.50;;;;;;;15.79;86.18;100855.59;6089067;19;20006;-72
2023/08/27 09:30:00;;;;;;;2.35;1.30;;;;;;;15.70;85.96;100851.75;6082559;19;20181;-68
2023/08/27 09:32:06;;;;;;;1.48;1.23;;;;;;;15.66;87.33;100860.78;6081150;19;20074;-69
2023/08/27 09:34:16;;;;;;;2.70;1.73;;;;;;;15.48;87.33;100877.78;6084233;19;20415;-67
2023/08/27 09:36:22;;;;;;;3.72;1.42;;;;;;;15.34;86.86;100870.69;6077698;19;20421;-69
2023/08/27 09:38:30;;;;;;;3.22;1.40;;;;;;;15.36;88.68;100869.66;6079646;19;19998;-70
2023/08/27 09:40:36;;;;;;;4.13;1.60;;;;;;;15.10;89.06;100857.13;6088172;19;20010;-70
2023/08/27 09:42:41;;;;;;;1.67;1.52;;;;;;;15.04;91.54;100846.91;6089791;19;20544;-71
2023/08/27 09:44:51;;;;;;;1.58;1.48;;;;;;;14.93;90.57;100848.38;6090109;19;20002;-70
2023/08/27 09:47:08;;;;;;;2.85;1.42;;;;;;;14.79;90.84;100858.91;6090503;19;20019;-72